Time;durP1;ratioP1;P1;durP2;ratioP2;P2;SDS_P1;SDS_P2;PMS_P1;PMS_P2;Temp;Humidity;BMP_temperature;BMP_pressure;BME280_temperature;BME280_humidity;BME280_pressure;Samples;Min_cycle;Max_cycle;Signal;HPM_P1;HPM_P2
2022/11/22 00:00:11;;;;;;;16.27;8.85;;;;;;;;;;2073449;28;20123;-47
2022/11/22 00:01:12;;;;;;;12.98;6.40;;;;;;;;;;2073631;28;20050;-47
2022/11/22 00:02:13;;;;;;;14.80;7.90;;;;;;;;;;2073553;28;20112;-48
2022/11/22 00:03:14;;;;;;;15.77;7.97;;;;;;;;;;2073502;28;20105;-47
2022/11/22 00:04:15;;;;;;;19.05;7.13;;;;;;;;;;2073506;28;20057;-47
2022/11/22 00:05:17;;;;;;;25.17;11.40;;;;;;;;;;2073506;28;20479;-47
2022/11/22 00:06:18;;;;;;;21.60;10.23;;;;;;;;;;2073651;28;20056;-47
2022/11/22 00:07:19;;;;;;;14.37;6.70;;;;;;;;;;2073685;28;20137;-46
2022/11/22 00:08:20;;;;;;;16.77;9.48;;;;;;;;;;2073627;28;20050;-47
2022/11/22 00:09:21;;;;;;;19.27;11.80;;;;;;;;;;2073411;28;20184;-48
2022/11/22 00:10:23;;;;;;;18.30;9.38;;;;;;;;;;2073540;28;20042;-46
2022/11/22 00:11:24;;;;;;;14.18;8.65;;;;;;;;;;2073366;28;20403;-47
2022/11/22 00:12:25;;;;;;;13.30;8.65;;;;;;;;;;2073562;28;20061;-47
2022/11/22 00:13:26;;;;;;;12.25;6.60;;;;;;;;;;2073427;28;20454;-47
2022/11/22 00:14:27;;;;;;;11.43;6.90;;;;;;;;;;2073361;28;20054;-46
2022/11/22 00:15:29;;;;;;;11.00;6.95;;;;;;;;;;2073409;28;20053;-46
2022/11/22 00:16:30;;;;;;;14.13;8.20;;;;;;;;;;2073514;28;20049;-47
2022/11/22 00:17:32;;;;;;;13.50;7.32;;;;;;;;;;2073496;28;20061;-47
2022/11/22 00:18:33;;;;;;;12.77;7.43;;;;;;;;;;2073386;28;20057;-46
2022/11/22 00:19:34;;;;;;;9.27;5.17;;;;;;;;;;2073166;28;20124;-46
2022/11/22 00:20:36;;;;;;;14.20;8.38;;;;;;;;;;2073407;28;20042;-46
2022/11/22 00:21:37;;;;;;;12.40;6.85;;;;;;;;;;2073551;28;20057;-46
2022/11/22 00:22:38;;;;;;;12.50;7.70;;;;;;;;;;2073543;28;20058;-41
2022/11/22 00:23:45;;;;;;;12.50;6.68;;;;;;;;;;2073318;28;20484;-41
2022/11/22 00:24:46;;;;;;;10.98;7.00;;;;;;;;;;2073328;28;20050;-41
2022/11/22 00:25:47;;;;;;;10.13;6.18;;;;;;;;;;2073506;28;20108;-41
2022/11/22 00:26:48;;;;;;;15.23;8.95;;;;;;;;;;2073358;28;20061;-40
2022/11/22 00:27:49;;;;;;;11.10;5.93;;;;;;;;;;2073326;28;20454;-41
2022/11/22 00:28:50;;;;;;;10.55;6.97;;;;;;;;;;2073445;28;20092;-41
2022/11/22 00:29:51;;;;;;;10.33;6.93;;;;;;;;;;2073195;28;20046;-41
2022/11/22 00:30:52;;;;;;;9.98;5.90;;;;;;;;;;2073223;28;20038;-41
2022/11/22 00:31:53;;;;;;;12.80;7.32;;;;;;;;;;2073388;28;20104;-42
2022/11/22 00:32:54;;;;;;;11.50;7.75;;;;;;;;;;2073296;28;20057;-41
2022/11/22 00:33:56;;;;;;;11.70;6.68;;;;;;;;;;2073218;28;20050;-41
2022/11/22 00:34:56;;;;;;;11.60;7.40;;;;;;;;;;2073547;28;20052;-42
2022/11/22 00:35:58;;;;;;;12.65;7.50;;;;;;;;;;2073361;28;20061;-42
2022/11/22 00:36:59;;;;;;;12.70;6.70;;;;;;;;;;2073404;28;20045;-42
2022/11/22 00:38:00;;;;;;;10.97;6.20;;;;;;;;;;2073388;28;20506;-42
2022/11/22 00:39:01;;;;;;;12.50;8.43;;;;;;;;;;2073360;28;20483;-42
2022/11/22 00:40:03;;;;;;;11.43;5.60;;;;;;;;;;2073287;28;20098;-41
2022/11/22 00:41:04;;;;;;;12.07;7.50;;;;;;;;;;2073265;28;20046;-42
2022/11/22 00:42:05;;;;;;;10.83;5.43;;;;;;;;;;2073241;28;20487;-41
2022/11/22 00:43:06;;;;;;;10.57;7.32;;;;;;;;;;2073165;28;20459;-42
2022/11/22 00:44:07;;;;;;;9.03;5.77;;;;;;;;;;2073361;28;20125;-41
2022/11/22 00:45:08;;;;;;;9.52;5.03;;;;;;;;;;2073180;28;20054;-42
2022/11/22 00:46:10;;;;;;;9.57;7.28;;;;;;;;;;2073250;28;20050;-41
2022/11/22 00:47:10;;;;;;;11.65;7.45;;;;;;;;;;2073294;28;20042;-41
2022/11/22 00:48:12;;;;;;;10.93;7.73;;;;;;;;;;2073418;28;20053;-47
2022/11/22 00:49:12;;;;;;;7.80;4.68;;;;;;;;;;2073240;28;20050;-47
2022/11/22 00:50:14;;;;;;;11.23;7.60;;;;;;;;;;2073359;28;20084;-48
2022/11/22 00:51:15;;;;;;;9.63;6.28;;;;;;;;;;2073417;28;20069;-47
2022/11/22 00:52:17;;;;;;;8.45;5.43;;;;;;;;;;2073395;28;20055;-48
2022/11/22 00:53:18;;;;;;;7.88;5.13;;;;;;;;;;2073274;28;20046;-47
2022/11/22 00:54:19;;;;;;;10.52;7.07;;;;;;;;;;2072970;28;20499;-47
2022/11/22 00:55:20;;;;;;;9.13;5.50;;;;;;;;;;2073304;28;20045;-47
2022/11/22 00:56:21;;;;;;;9.27;6.57;;;;;;;;;;2073354;28;20054;-47
2022/11/22 00:57:22;;;;;;;9.52;5.20;;;;;;;;;;2073068;28;20487;-46
2022/11/22 00:58:23;;;;;;;8.80;6.68;;;;;;;;;;2073521;28;20056;-47
2022/11/22 00:59:24;;;;;;;7.68;4.85;;;;;;;;;;2073173;28;20054;-47
2022/11/22 01:00:25;;;;;;;8.93;6.10;;;;;;;;;;2073202;28;20054;-46
2022/11/22 01:01:26;;;;;;;8.50;5.30;;;;;;;;;;2073138;28;20399;-48
2022/11/22 01:02:27;;;;;;;8.30;5.18;;;;;;;;;;2073422;28;20050;-41
2022/11/22 01:03:28;;;;;;;10.38;7.30;;;;;;;;;;2073032;28;20053;-41
2022/11/22 01:04:29;;;;;;;11.23;5.82;;;;;;;;;;2073545;28;20105;-42
2022/11/22 01:05:30;;;;;;;7.38;4.93;;;;;;;;;;2073578;28;20049;-42
2022/11/22 01:06:32;;;;;;;10.57;7.10;;;;;;;;;;2073176;28;20399;-42
2022/11/22 01:07:34;;;;;;;8.05;5.53;;;;;;;;;;2073105;28;20061;-42
2022/11/22 01:08:35;;;;;;;8.60;5.55;;;;;;;;;;2073116;28;20085;-42
2022/11/22 01:09:36;;;;;;;10.27;6.30;;;;;;;;;;2073589;28;20244;-42
2022/11/22 01:10:37;;;;;;;9.10;5.30;;;;;;;;;;2072490;28;20053;-42
2022/11/22 01:11:38;;;;;;;9.25;6.32;;;;;;;;;;2073242;28;20057;-43
2022/11/22 01:12:39;;;;;;;7.05;4.50;;;;;;;;;;2073244;28;20060;-43
2022/11/22 01:13:40;;;;;;;8.25;6.18;;;;;;;;;;2072980;28;20454;-42
2022/11/22 01:14:41;;;;;;;8.60;4.40;;;;;;;;;;2073184;28;20045;-43
2022/11/22 01:15:42;;;;;;;9.45;5.78;;;;;;;;;;2073291;28;20290;-47
2022/11/22 01:16:43;;;;;;;9.00;5.57;;;;;;;;;;2073321;28;20046;-43
2022/11/22 01:17:44;;;;;;;9.40;5.47;;;;;;;;;;2073043;28;20096;-42
2022/11/22 01:18:45;;;;;;;11.75;5.55;;;;;;;;;;2073130;28;20131;-47
2022/11/22 01:19:46;;;;;;;10.82;6.60;;;;;;;;;;2072712;28;20053;-47
2022/11/22 01:20:47;;;;;;;14.23;7.95;;;;;;;;;;2073144;28;20073;-47
2022/11/22 01:21:49;;;;;;;15.55;6.75;;;;;;;;;;2072945;28;20527;-47
2022/11/22 01:22:50;;;;;;;13.98;6.15;;;;;;;;;;2073035;28;20049;-48
2022/11/22 01:23:51;;;;;;;16.30;8.40;;;;;;;;;;2073160;28;20042;-46
2022/11/22 01:24:52;;;;;;;15.85;7.63;;;;;;;;;;2073198;28;20477;-47
2022/11/22 01:25:53;;;;;;;13.82;6.65;;;;;;;;;;2072953;28;20049;-47
2022/11/22 01:26:54;;;;;;;17.02;7.78;;;;;;;;;;2072925;28;20049;-48
2022/11/22 01:27:55;;;;;;;12.18;6.82;;;;;;;;;;2072880;28;20491;-47
2022/11/22 01:28:56;;;;;;;12.00;6.90;;;;;;;;;;2072991;28;20096;-47
2022/11/22 01:29:58;;;;;;;12.48;6.35;;;;;;;;;;2072911;28;20274;-47
2022/11/22 01:30:58;;;;;;;12.45;6.95;;;;;;;;;;2073010;28;20050;-48
2022/11/22 01:32:00;;;;;;;9.67;5.63;;;;;;;;;;2072897;28;20045;-46
2022/11/22 01:33:01;;;;;;;12.05;7.13;;;;;;;;;;2072926;28;20053;-46
2022/11/22 01:34:04;;;;;;;8.95;5.78;;;;;;;;;;2072804;28;20081;-46
2022/11/22 01:35:05;;;;;;;12.50;7.13;;;;;;;;;;2072906;28;20053;-46
2022/11/22 01:36:06;;;;;;;11.68;6.25;;;;;;;;;;2073026;28;20046;-46
2022/11/22 01:37:08;;;;;;;11.25;6.22;;;;;;;;;;2073145;28;20053;-43
2022/11/22 01:38:09;;;;;;;13.05;8.00;;;;;;;;;;2073068;28;20054;-43
2022/11/22 01:39:10;;;;;;;11.35;6.55;;;;;;;;;;2072792;28;20049;-43
2022/11/22 01:40:11;;;;;;;8.73;5.30;;;;;;;;;;2072953;28;20188;-43
2022/11/22 01:41:12;;;;;;;7.97;5.47;;;;;;;;;;2072931;28;20058;-43
2022/11/22 01:42:14;;;;;;;9.45;5.70;;;;;;;;;;2072847;28;20479;-43
2022/11/22 01:43:16;;;;;;;10.93;6.25;;;;;;;;;;2072829;28;20054;-43
2022/11/22 01:44:18;;;;;;;9.18;5.78;;;;;;;;;;2073175;28;20053;-47
2022/11/22 01:45:38;;;;;;;9.20;5.82;;;;;;;;;;2073085;28;20057;-43
2022/11/22 01:46:39;;;;;;;10.60;6.13;;;;;;;;;;2072969;28;20058;-43
2022/11/22 01:47:40;;;;;;;8.73;5.78;;;;;;;;;;2072775;28;20403;-43
2022/11/22 01:48:46;;;;;;;9.75;5.13;;;;;;;;;;2072882;28;20053;-43
2022/11/22 01:49:50;;;;;;;10.82;7.03;;;;;;;;;;2072666;28;20414;-44
2022/11/22 01:50:53;;;;;;;11.40;6.90;;;;;;;;;;2072788;28;20050;-43
2022/11/22 01:51:57;;;;;;;9.50;5.35;;;;;;;;;;2072891;28;20049;-43
2022/11/22 01:53:00;;;;;;;10.32;6.07;;;;;;;;;;2072852;28;20038;-43
2022/11/22 01:54:03;;;;;;;10.63;6.63;;;;;;;;;;2072815;28;20050;-43
2022/11/22 01:55:06;;;;;;;12.75;6.63;;;;;;;;;;2072802;28;20050;-43
2022/11/22 01:56:09;;;;;;;11.40;6.55;;;;;;;;;;2072987;28;20053;-44
2022/11/22 01:57:12;;;;;;;11.60;6.57;;;;;;;;;;2072798;28;20054;-44
2022/11/22 01:58:14;;;;;;;10.23;6.22;;;;;;;;;;2072823;28;20046;-43
2022/11/22 01:59:17;;;;;;;13.43;7.32;;;;;;;;;;2072716;28;20054;-43
2022/11/22 02:00:18;;;;;;;10.77;6.85;;;;;;;;;;2072896;28;20049;-43
2022/11/22 02:01:19;;;;;;;9.13;5.50;;;;;;;;;;2072788;28;20103;-44
2022/11/22 02:02:21;;;;;;;11.93;8.75;;;;;;;;;;2072838;28;20362;-44
2022/11/22 02:03:23;;;;;;;11.02;5.47;;;;;;;;;;2072879;28;20053;-44
2022/11/22 02:04:25;;;;;;;12.50;6.47;;;;;;;;;;2072578;28;20053;-44
2022/11/22 02:05:27;;;;;;;10.27;6.25;;;;;;;;;;2072881;28;20042;-44
2022/11/22 02:06:33;;;;;;;12.23;7.90;;;;;;;;;;2072682;28;20053;-44
2022/11/22 02:07:37;;;;;;;12.95;8.15;;;;;;;;;;2072949;28;20046;-44
2022/11/22 02:08:43;;;;;;;12.55;7.18;;;;;;;;;;2072598;28;20139;-44
2022/11/22 02:09:44;;;;;;;12.77;7.38;;;;;;;;;;2072805;28;20045;-46
2022/11/22 02:10:47;;;;;;;13.15;7.72;;;;;;;;;;2072720;28;20045;-46
2022/11/22 02:11:49;;;;;;;11.05;6.70;;;;;;;;;;2072317;28;20513;-44
2022/11/22 02:12:51;;;;;;;12.52;6.90;;;;;;;;;;2072233;28;20049;-44
2022/11/22 02:13:53;;;;;;;16.40;9.65;;;;;;;;;;2072313;28;20048;-46
2022/11/22 02:14:55;;;;;;;11.32;6.95;;;;;;;;;;2072411;28;20487;-43
2022/11/22 02:15:57;;;;;;;13.05;8.10;;;;;;;;;;2072280;28;20392;-44
2022/11/22 02:16:58;;;;;;;14.50;8.88;;;;;;;;;;2072624;28;20104;-44
2022/11/22 02:17:59;;;;;;;16.98;7.65;;;;;;;;;;2072763;28;20037;-46
2022/11/22 02:19:00;;;;;;;13.97;9.87;;;;;;;;;;2072429;28;20350;-44
2022/11/22 02:20:01;;;;;;;16.85;10.13;;;;;;;;;;2072966;28;20088;-46
2022/11/22 02:21:02;;;;;;;18.90;9.77;;;;;;;;;;2072939;28;20104;-47
2022/11/22 02:22:05;;;;;;;15.18;9.32;;;;;;;;;;2072454;28;20042;-47
2022/11/22 02:23:09;;;;;;;16.65;8.88;;;;;;;;;;2072711;28;20050;-43
2022/11/22 02:24:13;;;;;;;17.08;9.10;;;;;;;;;;2072841;28;20072;-45
2022/11/22 02:25:17;;;;;;;17.05;9.75;;;;;;;;;;2072750;28;20057;-44
2022/11/22 02:26:19;;;;;;;16.65;9.23;;;;;;;;;;2072693;28;20544;-46
2022/11/22 02:27:20;;;;;;;17.95;9.13;;;;;;;;;;2072815;28;20052;-47
2022/11/22 02:28:22;;;;;;;16.33;10.48;;;;;;;;;;2072784;28;20049;-47
2022/11/22 02:29:24;;;;;;;18.85;10.35;;;;;;;;;;2072840;28;20045;-46
2022/11/22 02:30:24;;;;;;;;;;;;;;;;;;2073168;28;20446;-46
2022/11/22 02:31:32;;;;;;;14.85;7.60;;;;;;;;;;2072720;28;20012;-43
2022/11/22 02:32:33;;;;;;;18.65;10.98;;;;;;;;;;2072743;28;20046;-44
2022/11/22 02:33:34;;;;;;;18.15;10.63;;;;;;;;;;2072612;28;20045;-46
2022/11/22 02:34:43;;;;;;;17.83;10.33;;;;;;;;;;2072646;28;20499;-45
2022/11/22 02:35:44;;;;;;;18.38;10.10;;;;;;;;;;2072485;28;20057;-46
2022/11/22 02:36:46;;;;;;;18.17;10.17;;;;;;;;;;2072813;28;20054;-46
2022/11/22 02:37:48;;;;;;;17.80;10.80;;;;;;;;;;2072550;28;20764;-46
2022/11/22 02:38:49;;;;;;;19.25;11.02;;;;;;;;;;2072698;28;20053;-46
2022/11/22 02:39:51;;;;;;;21.67;11.07;;;;;;;;;;2072527;28;20145;-44
2022/11/22 02:40:53;;;;;;;17.52;11.40;;;;;;;;;;2072769;28;20061;-44
2022/11/22 02:41:54;;;;;;;;;;;;;;;;;;2072524;28;20050;-43
2022/11/22 02:42:57;;;;;;;15.63;8.10;;;;;;;;;;2072561;28;19980;-44
2022/11/22 02:43:58;;;;;;;18.70;10.38;;;;;;;;;;2072689;28;20046;-44
2022/11/22 02:45:00;;;;;;;16.80;9.57;;;;;;;;;;2072610;28;20072;-43
2022/11/22 02:46:04;;;;;;;19.80;10.18;;;;;;;;;;2072624;28;20447;-43
2022/11/22 02:47:05;;;;;;;18.58;11.52;;;;;;;;;;2072587;28;20553;-46
2022/11/22 02:48:07;;;;;;;20.77;11.50;;;;;;;;;;2072809;28;20061;-44
2022/11/22 02:49:08;;;;;;;21.23;10.43;;;;;;;;;;2072525;28;20104;-45
2022/11/22 02:50:09;;;;;;;23.17;13.43;;;;;;;;;;2072702;28;20054;-43
2022/11/22 02:51:15;;;;;;;17.42;9.63;;;;;;;;;;2072525;28;20060;-44
2022/11/22 02:52:16;;;;;;;17.33;10.20;;;;;;;;;;2072705;28;20058;-43
2022/11/22 02:53:17;;;;;;;23.88;12.25;;;;;;;;;;2072675;28;20046;-46
2022/11/22 02:54:18;;;;;;;24.25;11.23;;;;;;;;;;2072588;28;20108;-46
2022/11/22 02:55:20;;;;;;;21.75;10.73;;;;;;;;;;2072552;28;20054;-45
2022/11/22 02:56:21;;;;;;;17.55;9.48;;;;;;;;;;2072689;28;20042;-43
2022/11/22 02:57:22;;;;;;;22.40;11.50;;;;;;;;;;2072646;28;20392;-44
2022/11/22 02:58:23;;;;;;;20.00;11.02;;;;;;;;;;2072450;28;20053;-43
2022/11/22 02:59:24;;;;;;;18.17;11.18;;;;;;;;;;2072593;28;20054;-46
2022/11/22 03:00:25;;;;;;;22.45;11.40;;;;;;;;;;2072585;28;20507;-43
2022/11/22 03:01:28;;;;;;;21.02;11.38;;;;;;;;;;2072666;28;20112;-43
2022/11/22 03:02:29;;;;;;;20.70;10.50;;;;;;;;;;2072535;28;20049;-46
2022/11/22 03:03:30;;;;;;;19.03;10.40;;;;;;;;;;2072704;28;20550;-46
2022/11/22 03:04:31;;;;;;;18.58;11.48;;;;;;;;;;2072372;28;20061;-43
2022/11/22 03:05:33;;;;;;;18.23;11.23;;;;;;;;;;2072567;28;20054;-46
2022/11/22 03:06:33;;;;;;;16.83;9.13;;;;;;;;;;2072555;28;20049;-44
2022/11/22 03:07:35;;;;;;;23.00;12.00;;;;;;;;;;2072470;28;20041;-46
2022/11/22 03:08:36;;;;;;;19.08;10.05;;;;;;;;;;2072496;28;20077;-43
2022/11/22 03:09:37;;;;;;;20.13;10.23;;;;;;;;;;2072466;28;20046;-46
2022/11/22 03:10:38;;;;;;;19.67;10.43;;;;;;;;;;2072543;28;20056;-43
2022/11/22 03:11:39;;;;;;;21.93;11.63;;;;;;;;;;2072588;28;20061;-43
2022/11/22 03:12:40;;;;;;;22.45;11.85;;;;;;;;;;2072487;28;20057;-46
2022/11/22 03:13:42;;;;;;;21.00;10.87;;;;;;;;;;2072422;28;20053;-46
2022/11/22 03:14:43;;;;;;;19.83;11.75;;;;;;;;;;2072456;28;20057;-46
2022/11/22 03:15:46;;;;;;;15.77;9.93;;;;;;;;;;2072462;28;20056;-46
2022/11/22 03:16:47;;;;;;;18.08;10.35;;;;;;;;;;2072535;28;20053;-43
2022/11/22 03:17:48;;;;;;;13.65;7.93;;;;;;;;;;2072614;28;20045;-43
2022/11/22 03:18:49;;;;;;;16.75;10.55;;;;;;;;;;2072183;28;20128;-50
2022/11/22 03:19:50;;;;;;;15.85;9.93;;;;;;;;;;2072504;28;20491;-46
2022/11/22 03:20:51;;;;;;;17.00;9.88;;;;;;;;;;2072390;28;20049;-46
2022/11/22 03:21:52;;;;;;;18.85;10.50;;;;;;;;;;2072628;28;20144;-44
2022/11/22 03:22:53;;;;;;;19.75;9.45;;;;;;;;;;2072468;28;20463;-44
2022/11/22 03:23:54;;;;;;;18.63;9.70;;;;;;;;;;2072602;28;20081;-44
2022/11/22 03:24:55;;;;;;;22.75;10.48;;;;;;;;;;2072416;28;20057;-45
2022/11/22 03:25:56;;;;;;;17.85;9.23;;;;;;;;;;2072561;28;20450;-44
2022/11/22 03:26:57;;;;;;;22.58;10.77;;;;;;;;;;2072382;28;20484;-45
2022/11/22 03:27:58;;;;;;;18.77;9.90;;;;;;;;;;2072575;28;20042;-43
2022/11/22 03:29:00;;;;;;;18.48;11.25;;;;;;;;;;2072343;28;20053;-44
2022/11/22 03:30:01;;;;;;;19.80;11.18;;;;;;;;;;2072591;28;20045;-45
2022/11/22 03:31:03;;;;;;;17.55;10.07;;;;;;;;;;2072374;28;20407;-44
2022/11/22 03:32:04;;;;;;;17.45;10.75;;;;;;;;;;2072344;28;20042;-43
2022/11/22 03:33:05;;;;;;;16.05;9.20;;;;;;;;;;2072422;28;20475;-45
2022/11/22 03:34:06;;;;;;;16.05;8.32;;;;;;;;;;2072753;28;20181;-45
2022/11/22 03:35:08;;;;;;;14.48;9.77;;;;;;;;;;2073779;28;20057;-43
2022/11/22 03:36:09;;;;;;;14.07;8.57;;;;;;;;;;2073745;28;20050;-43
2022/11/22 03:37:10;;;;;;;17.52;9.68;;;;;;;;;;2073689;28;20100;-44
2022/11/22 03:38:11;;;;;;;17.23;10.55;;;;;;;;;;2073773;28;20054;-44
2022/11/22 03:39:12;;;;;;;19.45;10.50;;;;;;;;;;2073681;28;20050;-44
2022/11/22 03:40:13;;;;;;;14.48;8.85;;;;;;;;;;2073810;28;20085;-44
2022/11/22 03:41:14;;;;;;;17.15;9.93;;;;;;;;;;2073868;28;20046;-44
2022/11/22 03:42:15;;;;;;;14.63;8.02;;;;;;;;;;2073935;28;20050;-43
2022/11/22 03:43:22;;;;;;;15.70;10.10;;;;;;;;;;2073700;28;20494;-43
2022/11/22 03:44:24;;;;;;;16.35;8.85;;;;;;;;;;2073711;28;20054;-44
2022/11/22 03:45:25;;;;;;;14.10;7.47;;;;;;;;;;2073817;28;20049;-43
2022/11/22 03:46:26;;;;;;;15.27;7.63;;;;;;;;;;2073817;28;20060;-45
2022/11/22 03:47:27;;;;;;;15.20;9.60;;;;;;;;;;2073851;28;20100;-43
2022/11/22 03:48:28;;;;;;;16.53;9.00;;;;;;;;;;2073949;28;20340;-44
2022/11/22 03:49:29;;;;;;;15.00;9.27;;;;;;;;;;2073707;28;20050;-45
2022/11/22 03:50:31;;;;;;;15.00;9.43;;;;;;;;;;2073830;28;20081;-45
2022/11/22 03:51:32;;;;;;;13.90;7.97;;;;;;;;;;2073686;28;20490;-44
2022/11/22 03:52:33;;;;;;;17.10;10.18;;;;;;;;;;2073613;28;20081;-45
2022/11/22 03:53:34;;;;;;;15.38;8.70;;;;;;;;;;2073689;28;20407;-43
2022/11/22 03:54:35;;;;;;;17.00;11.07;;;;;;;;;;2073461;28;20050;-45
2022/11/22 03:55:36;;;;;;;18.52;8.48;;;;;;;;;;2073840;28;20054;-44
2022/11/22 03:56:37;;;;;;;16.90;9.68;;;;;;;;;;2073643;28;20049;-45
2022/11/22 03:57:38;;;;;;;17.58;10.57;;;;;;;;;;2073794;28;20057;-43
2022/11/22 03:58:39;;;;;;;17.15;8.55;;;;;;;;;;2073642;28;20046;-45
2022/11/22 03:59:41;;;;;;;16.83;10.13;;;;;;;;;;2073512;28;20054;-46
2022/11/22 04:00:41;;;;;;;15.77;9.20;;;;;;;;;;2073601;28;20050;-43
2022/11/22 04:01:43;;;;;;;17.33;9.70;;;;;;;;;;2073664;28;20052;-43
2022/11/22 04:02:44;;;;;;;19.30;9.43;;;;;;;;;;2073439;28;20462;-45
2022/11/22 04:03:45;;;;;;;13.90;8.27;;;;;;;;;;2073778;28;20042;-45
2022/11/22 04:04:45;;;;;;;14.68;8.65;;;;;;;;;;2073632;28;20042;-46
2022/11/22 04:05:47;;;;;;;13.63;7.75;;;;;;;;;;2073717;28;20096;-44
2022/11/22 04:06:48;;;;;;;13.90;8.40;;;;;;;;;;2073650;28;20065;-43
2022/11/22 04:07:54;;;;;;;15.30;10.07;;;;;;;;;;2073446;28;20133;-43
2022/11/22 04:08:55;;;;;;;14.75;8.75;;;;;;;;;;2073598;28;20468;-43
2022/11/22 04:09:56;;;;;;;16.83;9.33;;;;;;;;;;2073420;28;20089;-44
2022/11/22 04:10:57;;;;;;;17.33;10.15;;;;;;;;;;2073565;28;20407;-45
2022/11/22 04:11:58;;;;;;;17.15;9.68;;;;;;;;;;2073628;28;20050;-43
2022/11/22 04:12:59;;;;;;;14.23;7.60;;;;;;;;;;2073568;28;20046;-43
2022/11/22 04:15:20;;;;;;;15.25;9.65;;;;;;;;;;2073566;28;20049;-43
2022/11/22 04:16:21;;;;;;;15.32;8.77;;;;;;;;;;2073615;28;20061;-46
2022/11/22 04:18:38;;;;;;;17.50;9.20;;;;;;;;;;2073374;28;20446;-43
2022/11/22 04:21:32;;;;;;;17.17;8.48;;;;;;;;;;2080479;28;20502;-45
2022/11/22 04:22:20;;;;;;;15.63;9.63;;;;;;;;;;2081592;28;20056;-44
2022/11/22 04:23:21;;;;;;;17.85;9.27;;;;;;;;;;2081674;28;20061;-43
2022/11/22 04:25:43;;;;;;;14.57;7.53;;;;;;;;;;2081681;28;20076;-44
2022/11/22 04:26:44;;;;;;;13.07;6.55;;;;;;;;;;2081684;28;20055;-46
2022/11/22 04:27:44;;;;;;;14.50;8.33;;;;;;;;;;2081651;28;20425;-46
2022/11/22 04:28:46;;;;;;;13.07;8.23;;;;;;;;;;2081677;28;20045;-44
2022/11/22 04:30:07;;;;;;;15.07;10.00;;;;;;;;;;2081686;28;20045;-47
2022/11/22 04:32:46;;;;;;;18.00;9.95;;;;;;;;;;2081673;28;20053;-44
2022/11/22 04:33:47;;;;;;;17.63;9.57;;;;;;;;;;2081725;28;20119;-44
2022/11/22 04:34:48;;;;;;;17.17;9.23;;;;;;;;;;2081565;28;20050;-44
2022/11/22 04:35:49;;;;;;;17.33;9.93;;;;;;;;;;2081675;28;20050;-47
2022/11/22 04:36:50;;;;;;;13.35;7.95;;;;;;;;;;2081574;28;20049;-43
2022/11/22 04:37:51;;;;;;;20.58;12.38;;;;;;;;;;2081769;28;20045;-44
2022/11/22 04:38:52;;;;;;;16.02;9.10;;;;;;;;;;2081505;28;20479;-45
2022/11/22 04:39:53;;;;;;;17.60;10.52;;;;;;;;;;2081373;28;20633;-47
2022/11/22 04:40:54;;;;;;;15.47;9.70;;;;;;;;;;2081731;28;20073;-43
2022/11/22 04:44:41;;;;;;;13.30;7.60;;;;;;;;;;2081599;28;20049;-47
2022/11/22 04:45:42;;;;;;;15.15;9.27;;;;;;;;;;2081353;28;20486;-43
2022/11/22 04:46:44;;;;;;;14.90;8.27;;;;;;;;;;2081491;28;20509;-43
2022/11/22 04:47:59;;;;;;;17.27;10.45;;;;;;;;;;2081507;28;20052;-47
2022/11/22 04:49:00;;;;;;;16.17;9.60;;;;;;;;;;2081531;28;20041;-43
2022/11/22 04:50:02;;;;;;;16.47;10.07;;;;;;;;;;2081495;28;20048;-43
2022/11/22 04:53:43;;;;;;;19.90;11.55;;;;;;;;;;2081569;28;20045;-43
2022/11/22 04:54:44;;;;;;;17.58;10.23;;;;;;;;;;2081395;28;20403;-48
2022/11/22 04:55:46;;;;;;;13.70;7.93;;;;;;;;;;2081497;28;20042;-43
2022/11/22 04:56:47;;;;;;;14.65;9.73;;;;;;;;;;2081560;28;20045;-43
2022/11/22 04:57:48;;;;;;;17.40;10.47;;;;;;;;;;2081397;28;20546;-45
2022/11/22 04:58:50;;;;;;;16.88;10.05;;;;;;;;;;2081522;28;20053;-43
2022/11/22 04:59:51;;;;;;;16.70;9.57;;;;;;;;;;2081240;28;20551;-44
2022/11/22 05:00:52;;;;;;;14.15;8.98;;;;;;;;;;2081352;28;20128;-43
2022/11/22 05:01:53;;;;;;;16.20;10.27;;;;;;;;;;2081442;28;20129;-48
2022/11/22 05:02:55;;;;;;;17.05;9.35;;;;;;;;;;2081579;28;20053;-43
2022/11/22 05:03:56;;;;;;;15.88;8.32;;;;;;;;;;2080380;28;20045;-49
2022/11/22 05:04:57;;;;;;;17.90;11.30;;;;;;;;;;2073306;28;20042;-43
2022/11/22 05:06:00;;;;;;;19.05;9.25;;;;;;;;;;2073203;28;20056;-48
2022/11/22 05:07:01;;;;;;;16.45;9.80;;;;;;;;;;2073172;28;20057;-49
2022/11/22 05:08:02;;;;;;;18.38;8.73;;;;;;;;;;2073269;28;20070;-43
2022/11/22 05:09:03;;;;;;;13.52;8.32;;;;;;;;;;2073291;28;20042;-49
2022/11/22 05:10:04;;;;;;;17.88;9.18;;;;;;;;;;2073049;28;20052;-49
2022/11/22 05:11:05;;;;;;;15.68;9.35;;;;;;;;;;2073121;28;20138;-49
2022/11/22 05:12:07;;;;;;;15.20;7.88;;;;;;;;;;2073224;28;20049;-43
2022/11/22 05:13:07;;;;;;;13.45;8.73;;;;;;;;;;2073135;28;20061;-49
2022/11/22 05:14:09;;;;;;;15.80;10.75;;;;;;;;;;2073162;28;20462;-43
2022/11/22 05:15:10;;;;;;;13.23;7.75;;;;;;;;;;2073185;28;20046;-42
2022/11/22 05:16:12;;;;;;;18.02;10.52;;;;;;;;;;2073108;28;20054;-49
2022/11/22 05:17:13;;;;;;;18.10;10.75;;;;;;;;;;2073117;28;20103;-51
2022/11/22 05:18:14;;;;;;;17.08;10.85;;;;;;;;;;2073270;28;20046;-45
2022/11/22 05:19:15;;;;;;;16.23;8.77;;;;;;;;;;2076964;28;20045;-47
2022/11/22 05:20:17;;;;;;;21.03;11.30;;;;;;;;;;2081363;28;20046;-50
2022/11/22 05:21:17;;;;;;;15.88;9.05;;;;;;;;;;2081406;28;20045;-49
2022/11/22 05:23:52;;;;;;;17.20;10.35;;;;;;;;;;2081186;28;20053;-50
2022/11/22 05:23:55;;;;;;;15.25;8.70;;;;;;;;;;2081607;28;20046;-43
2022/11/22 05:24:56;;;;;;;17.02;9.00;;;;;;;;;;2081263;28;20084;-49
2022/11/22 05:25:57;;;;;;;16.83;9.27;;;;;;;;;;2081397;28;20049;-50
2022/11/22 05:27:00;;;;;;;18.80;11.57;;;;;;;;;;2081244;28;20402;-44
2022/11/22 05:28:01;;;;;;;18.92;9.88;;;;;;;;;;2081294;28;20057;-49
2022/11/22 05:29:03;;;;;;;15.60;10.10;;;;;;;;;;2081219;28;20410;-42
2022/11/22 05:30:05;;;;;;;19.17;10.82;;;;;;;;;;2081283;28;20049;-43
2022/11/22 05:31:07;;;;;;;16.77;11.02;;;;;;;;;;2081065;28;20049;-49
2022/11/22 05:32:08;;;;;;;17.67;9.73;;;;;;;;;;2081275;28;20054;-48
2022/11/22 05:33:10;;;;;;;18.03;10.10;;;;;;;;;;2081311;28;20057;-43
2022/11/22 05:34:11;;;;;;;18.33;9.70;;;;;;;;;;2081078;28;20289;-49
2022/11/22 05:35:12;;;;;;;18.58;11.75;;;;;;;;;;2081192;28;20056;-43
2022/11/22 05:36:13;;;;;;;20.67;11.35;;;;;;;;;;2081171;28;20482;-43
2022/11/22 05:37:14;;;;;;;18.85;9.63;;;;;;;;;;2081108;28;20045;-43
2022/11/22 05:38:15;;;;;;;18.55;9.73;;;;;;;;;;2081364;28;20059;-49
2022/11/22 05:39:16;;;;;;;17.25;9.98;;;;;;;;;;2081235;28;20128;-43
2022/11/22 05:40:17;;;;;;;18.63;10.77;;;;;;;;;;2081168;28;20435;-49
2022/11/22 05:41:18;;;;;;;19.48;11.10;;;;;;;;;;2081262;28;20151;-50
2022/11/22 05:42:19;;;;;;;21.73;12.38;;;;;;;;;;2081111;28;20072;-43
2022/11/22 05:43:20;;;;;;;16.87;9.43;;;;;;;;;;2080910;28;20083;-43
2022/11/22 05:44:22;;;;;;;16.80;9.43;;;;;;;;;;2081000;28;20490;-43
2022/11/22 05:45:23;;;;;;;18.95;12.15;;;;;;;;;;2081156;28;20045;-43
2022/11/22 05:46:25;;;;;;;23.80;12.45;;;;;;;;;;2080954;28;20053;-50
2022/11/22 05:47:26;;;;;;;17.63;11.38;;;;;;;;;;2081119;28;20398;-44
2022/11/22 07:09:34;;;;;;;23.72;13.56;;;;;;;;;;4294112;27;20317;-49
2022/11/22 07:10:35;;;;;;;25.98;14.82;;;;;;;;;;2138591;27;20054;-49
2022/11/22 07:11:37;;;;;;;18.88;9.68;;;;;;;;;;2138393;27;20402;-49
2022/11/22 07:12:37;;;;;;;19.15;9.40;;;;;;;;;;2136025;27;20046;-48
2022/11/22 07:13:39;;;;;;;20.33;10.73;;;;;;;;;;2129871;27;20500;-48
2022/11/22 07:14:40;;;;;;;21.20;10.23;;;;;;;;;;2130239;27;20064;-42
2022/11/22 07:15:41;;;;;;;21.63;11.20;;;;;;;;;;2130366;27;20392;-51
2022/11/22 07:16:42;;;;;;;24.42;12.02;;;;;;;;;;2129663;27;20050;-50
2022/11/22 07:17:43;;;;;;;20.67;10.77;;;;;;;;;;2130002;27;20047;-49
2022/11/22 07:18:44;;;;;;;19.57;11.00;;;;;;;;;;2129865;27;20046;-48
2022/11/22 07:19:46;;;;;;;21.60;11.25;;;;;;;;;;2129621;27;20283;-48
2022/11/22 07:20:46;;;;;;;24.33;11.60;;;;;;;;;;2129827;27;20092;-52
2022/11/22 07:21:48;;;;;;;23.60;12.00;;;;;;;;;;2130095;27;20095;-49
2022/11/22 07:22:49;;;;;;;23.13;12.57;;;;;;;;;;2129599;27;20467;-52
2022/11/22 07:23:51;;;;;;;24.58;13.30;;;;;;;;;;2129769;27;20050;-48
2022/11/22 07:24:53;;;;;;;20.75;9.80;;;;;;;;;;2129861;27;20047;-50
2022/11/22 07:25:54;;;;;;;21.75;10.73;;;;;;;;;;2129679;27;20088;-49
2022/11/22 07:26:55;;;;;;;23.83;14.30;;;;;;;;;;2129819;27;20300;-51
2022/11/22 07:27:56;;;;;;;22.30;13.20;;;;;;;;;;2129502;27;20502;-49
2022/11/22 07:28:57;;;;;;;24.17;12.40;;;;;;;;;;2130104;27;20375;-50
2022/11/22 07:29:58;;;;;;;25.92;12.90;;;;;;;;;;2129844;27;20043;-49
2022/11/22 07:31:00;;;;;;;23.33;12.40;;;;;;;;;;2129584;27;20039;-49
2022/11/22 07:32:01;;;;;;;18.85;9.13;;;;;;;;;;2129795;27;20104;-48
2022/11/22 07:33:02;;;;;;;22.42;13.50;;;;;;;;;;2129379;27;20716;-48
2022/11/22 07:34:03;;;;;;;22.52;12.75;;;;;;;;;;2129609;27;20090;-48
2022/11/22 07:35:04;;;;;;;25.98;14.13;;;;;;;;;;2129835;27;20050;-44
2022/11/22 07:36:06;;;;;;;21.45;11.45;;;;;;;;;;2129762;27;20042;-43
2022/11/22 07:37:07;;;;;;;;;;;;;;;;;;2130170;27;20046;-41